sensor_id;sensor_type;location;lat;lon;timestamp;P1;durP1;ratioP1;P2;durP2;ratioP2
54899;SDS011;40801;41.924;25.562;2023-02-10T00:01:03;24.52;;;16.25;;
54899;SDS011;40801;41.924;25.562;2023-02-10T00:03:29;15.50;;;11.60;;
54899;SDS011;40801;41.924;25.562;2023-02-10T00:05:55;16.27;;;12.23;;
54899;SDS011;40801;41.924;25.562;2023-02-10T00:08:20;14.75;;;10.52;;
54899;SDS011;40801;41.924;25.562;2023-02-10T00:10:46;20.48;;;14.18;;
54899;SDS011;40801;41.924;25.562;2023-02-10T00:13:11;13.60;;;10.68;;
54899;SDS011;40801;41.924;25.562;2023-02-10T00:15:36;18.42;;;13.23;;
54899;SDS011;40801;41.924;25.562;2023-02-10T00:18:02;18.05;;;12.32;;
54899;SDS011;40801;41.924;25.562;2023-02-10T00:20:28;19.42;;;11.70;;
54899;SDS011;40801;41.924;25.562;2023-02-10T00:22:53;24.02;;;16.13;;
54899;SDS011;40801;41.924;25.562;2023-02-10T00:25:18;30.73;;;16.88;;
54899;SDS011;40801;41.924;25.562;2023-02-10T00:27:44;25.40;;;17.02;;
54899;SDS011;40801;41.924;25.562;2023-02-10T00:30:09;26.02;;;16.30;;
54899;SDS011;40801;41.924;25.562;2023-02-10T00:32:35;20.15;;;15.05;;
54899;SDS011;40801;41.924;25.562;2023-02-10T00:35:02;21.70;;;14.65;;
54899;SDS011;40801;41.924;25.562;2023-02-10T00:37:28;23.40;;;15.93;;
54899;SDS011;40801;41.924;25.562;2023-02-10T00:39:53;25.13;;;17.65;;
54899;SDS011;40801;41.924;25.562;2023-02-10T00:42:20;23.88;;;17.85;;
54899;SDS011;40801;41.924;25.562;2023-02-10T00:44:45;22.73;;;17.20;;
54899;SDS011;40801;41.924;25.562;2023-02-10T00:47:11;22.80;;;15.23;;
54899;SDS011;40801;41.924;25.562;2023-02-10T00:49:36;22.95;;;15.43;;
54899;SDS011;40801;41.924;25.562;2023-02-10T00:52:02;21.48;;;16.33;;
54899;SDS011;40801;41.924;25.562;2023-02-10T00:54:27;21.48;;;15.80;;
54899;SDS011;40801;41.924;25.562;2023-02-10T00:56:53;19.08;;;14.50;;
54899;SDS011;40801;41.924;25.562;2023-02-10T00:59:18;18.02;;;11.80;;
54899;SDS011;40801;41.924;25.562;2023-02-10T01:01:45;21.90;;;15.98;;
54899;SDS011;40801;41.924;25.562;2023-02-10T01:04:11;20.08;;;14.48;;
54899;SDS011;40801;41.924;25.562;2023-02-10T01:06:37;16.88;;;13.63;;
54899;SDS011;40801;41.924;25.562;2023-02-10T01:09:03;19.40;;;14.98;;
54899;SDS011;40801;41.924;25.562;2023-02-10T01:11:29;23.45;;;14.10;;
54899;SDS011;40801;41.924;25.562;2023-02-10T01:13:54;17.65;;;12.65;;
54899;SDS011;40801;41.924;25.562;2023-02-10T01:16:20;14.27;;;12.07;;
54899;SDS011;40801;41.924;25.562;2023-02-10T01:18:46;19.02;;;12.13;;
54899;SDS011;40801;41.924;25.562;2023-02-10T01:21:13;15.50;;;12.45;;
54899;SDS011;40801;41.924;25.562;2023-02-10T01:23:40;14.75;;;11.30;;
54899;SDS011;40801;41.924;25.562;2023-02-10T01:26:06;16.73;;;11.55;;
54899;SDS011;40801;41.924;25.562;2023-02-10T01:28:33;14.55;;;12.05;;
54899;SDS011;40801;41.924;25.562;2023-02-10T01:30:58;19.92;;;14.27;;
54899;SDS011;40801;41.924;25.562;2023-02-10T01:33:28;16.33;;;11.68;;
54899;SDS011;40801;41.924;25.562;2023-02-10T01:35:54;14.85;;;11.85;;
54899;SDS011;40801;41.924;25.562;2023-02-10T01:38:19;14.38;;;11.80;;
54899;SDS011;40801;41.924;25.562;2023-02-10T01:40:47;14.85;;;12.18;;
54899;SDS011;40801;41.924;25.562;2023-02-10T01:43:14;16.70;;;11.02;;
54899;SDS011;40801;41.924;25.562;2023-02-10T01:45:41;16.55;;;10.35;;
54899;SDS011;40801;41.924;25.562;2023-02-10T01:48:08;17.15;;;11.07;;
54899;SDS011;40801;41.924;25.562;2023-02-10T01:50:39;15.27;;;11.00;;
54899;SDS011;40801;41.924;25.562;2023-02-10T01:53:07;17.08;;;10.95;;
54899;SDS011;40801;41.924;25.562;2023-02-10T01:55:34;16.55;;;9.98;;
54899;SDS011;40801;41.924;25.562;2023-02-10T01:58:05;12.68;;;10.25;;
54899;SDS011;40801;41.924;25.562;2023-02-10T02:03:00;14.07;;;9.75;;
54899;SDS011;40801;41.924;25.562;2023-02-10T02:05:31;14.63;;;12.05;;
54899;SDS011;40801;41.924;25.562;2023-02-10T02:07:59;12.40;;;10.60;;
54899;SDS011;40801;41.924;25.562;2023-02-10T02:10:41;13.40;;;9.53;;
54899;SDS011;40801;41.924;25.562;2023-02-10T02:25:47;15.57;;;12.63;;
54899;SDS011;40801;41.924;25.562;2023-02-10T02:36:41;19.80;;;11.23;;
54899;SDS011;40801;41.924;25.562;2023-02-10T02:39:13;19.25;;;14.30;;
54899;SDS011;40801;41.924;25.562;2023-02-10T02:41:38;12.95;;;10.93;;
54899;SDS011;40801;41.924;25.562;2023-02-10T02:44:04;15.23;;;11.55;;
54899;SDS011;40801;41.924;25.562;2023-02-10T02:46:37;11.32;;;9.90;;
54899;SDS011;40801;41.924;25.562;2023-02-10T02:51:57;14.10;;;9.98;;
54899;SDS011;40801;41.924;25.562;2023-02-10T02:57:22;14.90;;;12.32;;
54899;SDS011;40801;41.924;25.562;2023-02-10T03:00:10;14.50;;;11.40;;
54899;SDS011;40801;41.924;25.562;2023-02-10T03:02:39;17.92;;;13.07;;
54899;SDS011;40801;41.924;25.562;2023-02-10T03:05:06;17.60;;;13.63;;
54899;SDS011;40801;41.924;25.562;2023-02-10T03:07:33;17.45;;;11.93;;
54899;SDS011;40801;41.924;25.562;2023-02-10T03:09:58;16.85;;;13.63;;
54899;SDS011;40801;41.924;25.562;2023-02-10T03:12:24;17.33;;;12.93;;
54899;SDS011;40801;41.924;25.562;2023-02-10T03:14:49;18.67;;;11.65;;
54899;SDS011;40801;41.924;25.562;2023-02-10T03:17:15;15.60;;;12.27;;
54899;SDS011;40801;41.924;25.562;2023-02-10T03:19:40;12.88;;;11.40;;
54899;SDS011;40801;41.924;25.562;2023-02-10T03:22:05;13.88;;;10.55;;
54899;SDS011;40801;41.924;25.562;2023-02-10T03:24:31;12.65;;;10.77;;
54899;SDS011;40801;41.924;25.562;2023-02-10T03:26:56;16.17;;;11.48;;
54899;SDS011;40801;41.924;25.562;2023-02-10T03:29:22;13.77;;;11.50;;
54899;SDS011;40801;41.924;25.562;2023-02-10T03:31:48;16.42;;;11.80;;
54899;SDS011;40801;41.924;25.562;2023-02-10T03:34:14;15.45;;;11.75;;
54899;SDS011;40801;41.924;25.562;2023-02-10T03:36:40;12.52;;;11.05;;
54899;SDS011;40801;41.924;25.562;2023-02-10T03:39:07;12.23;;;10.75;;
54899;SDS011;40801;41.924;25.562;2023-02-10T03:41:32;13.57;;;10.65;;
54899;SDS011;40801;41.924;25.562;2023-02-10T03:43:58;15.35;;;10.98;;
54899;SDS011;40801;41.924;25.562;2023-02-10T03:46:23;17.27;;;12.88;;
54899;SDS011;40801;41.924;25.562;2023-02-10T03:48:48;18.25;;;14.25;;
54899;SDS011;40801;41.924;25.562;2023-02-10T03:51:14;17.00;;;11.57;;
54899;SDS011;40801;41.924;25.562;2023-02-10T03:53:39;13.45;;;11.07;;
54899;SDS011;40801;41.924;25.562;2023-02-10T03:56:05;12.70;;;11.50;;
54899;SDS011;40801;41.924;25.562;2023-02-10T03:58:31;17.35;;;11.25;;
54899;SDS011;40801;41.924;25.562;2023-02-10T04:00:57;14.68;;;11.10;;
54899;SDS011;40801;41.924;25.562;2023-02-10T04:03:22;18.35;;;13.07;;
54899;SDS011;40801;41.924;25.562;2023-02-10T04:05:48;21.63;;;16.02;;
54899;SDS011;40801;41.924;25.562;2023-02-10T04:08:13;18.90;;;13.90;;
54899;SDS011;40801;41.924;25.562;2023-02-10T04:10:39;17.70;;;14.15;;
54899;SDS011;40801;41.924;25.562;2023-02-10T04:13:04;15.48;;;13.82;;
54899;SDS011;40801;41.924;25.562;2023-02-10T04:15:30;24.30;;;19.92;;
54899;SDS011;40801;41.924;25.562;2023-02-10T04:17:55;22.70;;;17.48;;
54899;SDS011;40801;41.924;25.562;2023-02-10T04:20:24;17.70;;;14.45;;
54899;SDS011;40801;41.924;25.562;2023-02-10T04:22:49;15.65;;;12.20;;
54899;SDS011;40801;41.924;25.562;2023-02-10T04:25:15;14.20;;;11.20;;
54899;SDS011;40801;41.924;25.562;2023-02-10T04:27:41;15.98;;;14.40;;
54899;SDS011;40801;41.924;25.562;2023-02-10T04:30:06;17.13;;;13.55;;
54899;SDS011;40801;41.924;25.562;2023-02-10T04:32:33;17.20;;;13.52;;
54899;SDS011;40801;41.924;25.562;2023-02-10T04:34:58;19.80;;;15.40;;
54899;SDS011;40801;41.924;25.562;2023-02-10T04:37:23;23.02;;;17.13;;
54899;SDS011;40801;41.924;25.562;2023-02-10T04:39:49;20.80;;;15.85;;
54899;SDS011;40801;41.924;25.562;2023-02-10T04:42:14;19.45;;;16.27;;
54899;SDS011;40801;41.924;25.562;2023-02-10T04:44:40;17.25;;;13.43;;
54899;SDS011;40801;41.924;25.562;2023-02-10T04:47:05;15.68;;;13.13;;
54899;SDS011;40801;41.924;25.562;2023-02-10T04:49:30;18.58;;;15.00;;
54899;SDS011;40801;41.924;25.562;2023-02-10T04:51:56;19.83;;;16.75;;
54899;SDS011;40801;41.924;25.562;2023-02-10T04:54:21;17.42;;;13.85;;
54899;SDS011;40801;41.924;25.562;2023-02-10T04:56:47;21.58;;;14.80;;
54899;SDS011;40801;41.924;25.562;2023-02-10T04:59:12;16.02;;;12.70;;
54899;SDS011;40801;41.924;25.562;2023-02-10T05:01:38;19.40;;;17.38;;
54899;SDS011;40801;41.924;25.562;2023-02-10T05:04:03;17.15;;;14.77;;
54899;SDS011;40801;41.924;25.562;2023-02-10T05:06:29;21.08;;;15.77;;
54899;SDS011;40801;41.924;25.562;2023-02-10T05:08:55;18.70;;;16.10;;
54899;SDS011;40801;41.924;25.562;2023-02-10T05:11:20;21.50;;;16.73;;
54899;SDS011;40801;41.924;25.562;2023-02-10T05:13:46;22.25;;;19.15;;
54899;SDS011;40801;41.924;25.562;2023-02-10T05:16:12;28.40;;;22.10;;
54899;SDS011;40801;41.924;25.562;2023-02-10T05:18:38;26.77;;;20.08;;
54899;SDS011;40801;41.924;25.562;2023-02-10T05:21:06;32.10;;;24.52;;
54899;SDS011;40801;41.924;25.562;2023-02-10T05:23:34;36.22;;;26.73;;
54899;SDS011;40801;41.924;25.562;2023-02-10T05:26:00;39.58;;;28.55;;
54899;SDS011;40801;41.924;25.562;2023-02-10T05:28:25;38.33;;;29.92;;
54899;SDS011;40801;41.924;25.562;2023-02-10T05:30:52;43.83;;;26.55;;
54899;SDS011;40801;41.924;25.562;2023-02-10T05:33:18;48.67;;;29.98;;
54899;SDS011;40801;41.924;25.562;2023-02-10T05:35:43;39.70;;;27.98;;
54899;SDS011;40801;41.924;25.562;2023-02-10T05:38:09;37.10;;;26.15;;
54899;SDS011;40801;41.924;25.562;2023-02-10T05:40:35;36.22;;;28.85;;
54899;SDS011;40801;41.924;25.562;2023-02-10T05:43:01;32.17;;;28.60;;
54899;SDS011;40801;41.924;25.562;2023-02-10T05:45:26;33.70;;;24.92;;
54899;SDS011;40801;41.924;25.562;2023-02-10T05:47:52;31.45;;;21.15;;
54899;SDS011;40801;41.924;25.562;2023-02-10T05:50:18;31.77;;;21.60;;
54899;SDS011;40801;41.924;25.562;2023-02-10T05:52:43;33.85;;;22.45;;
54899;SDS011;40801;41.924;25.562;2023-02-10T05:55:09;27.08;;;18.40;;
54899;SDS011;40801;41.924;25.562;2023-02-10T05:57:34;29.25;;;20.75;;
54899;SDS011;40801;41.924;25.562;2023-02-10T06:00:00;26.35;;;19.52;;
54899;SDS011;40801;41.924;25.562;2023-02-10T06:02:26;26.33;;;19.17;;
54899;SDS011;40801;41.924;25.562;2023-02-10T06:04:51;23.73;;;16.70;;
54899;SDS011;40801;41.924;25.562;2023-02-10T06:07:16;24.73;;;17.13;;
54899;SDS011;40801;41.924;25.562;2023-02-10T06:09:42;22.73;;;18.75;;
54899;SDS011;40801;41.924;25.562;2023-02-10T06:12:09;23.13;;;18.60;;
54899;SDS011;40801;41.924;25.562;2023-02-10T06:14:35;28.02;;;21.67;;
54899;SDS011;40801;41.924;25.562;2023-02-10T06:17:02;27.95;;;20.48;;
54899;SDS011;40801;41.924;25.562;2023-02-10T06:19:28;26.80;;;20.50;;
54899;SDS011;40801;41.924;25.562;2023-02-10T06:21:54;21.67;;;17.98;;
54899;SDS011;40801;41.924;25.562;2023-02-10T06:24:19;21.25;;;17.17;;
54899;SDS011;40801;41.924;25.562;2023-02-10T06:26:45;19.75;;;14.07;;
54899;SDS011;40801;41.924;25.562;2023-02-10T06:29:10;20.80;;;16.33;;
54899;SDS011;40801;41.924;25.562;2023-02-10T06:31:35;21.85;;;19.20;;
54899;SDS011;40801;41.924;25.562;2023-02-10T06:34:01;19.25;;;15.88;;
54899;SDS011;40801;41.924;25.562;2023-02-10T06:36:26;20.67;;;17.80;;
54899;SDS011;40801;41.924;25.562;2023-02-10T06:38:52;32.55;;;25.73;;
54899;SDS011;40801;41.924;25.562;2023-02-10T06:41:17;28.00;;;22.52;;
54899;SDS011;40801;41.924;25.562;2023-02-10T06:43:43;28.75;;;21.50;;
54899;SDS011;40801;41.924;25.562;2023-02-10T06:46:08;15.20;;;13.43;;
54899;SDS011;40801;41.924;25.562;2023-02-10T06:48:35;20.80;;;16.25;;
54899;SDS011;40801;41.924;25.562;2023-02-10T06:51:01;18.20;;;14.45;;
54899;SDS011;40801;41.924;25.562;2023-02-10T06:53:26;19.88;;;12.82;;
54899;SDS011;40801;41.924;25.562;2023-02-10T06:55:54;19.55;;;15.50;;
54899;SDS011;40801;41.924;25.562;2023-02-10T07:00:46;17.63;;;14.85;;
54899;SDS011;40801;41.924;25.562;2023-02-10T07:03:12;24.30;;;17.83;;
54899;SDS011;40801;41.924;25.562;2023-02-10T07:05:39;27.83;;;17.80;;
54899;SDS011;40801;41.924;25.562;2023-02-10T07:08:05;22.70;;;16.75;;
54899;SDS011;40801;41.924;25.562;2023-02-10T07:10:31;18.35;;;14.65;;
54899;SDS011;40801;41.924;25.562;2023-02-10T07:12:56;14.65;;;12.63;;
54899;SDS011;40801;41.924;25.562;2023-02-10T07:15:23;19.10;;;15.30;;
54899;SDS011;40801;41.924;25.562;2023-02-10T07:17:49;18.08;;;14.20;;
54899;SDS011;40801;41.924;25.562;2023-02-10T07:20:15;18.95;;;15.75;;
54899;SDS011;40801;41.924;25.562;2023-02-10T07:22:42;23.02;;;18.23;;
54899;SDS011;40801;41.924;25.562;2023-02-10T07:25:08;22.83;;;18.75;;
54899;SDS011;40801;41.924;25.562;2023-02-10T07:27:33;19.92;;;16.38;;
54899;SDS011;40801;41.924;25.562;2023-02-10T07:29:58;23.63;;;19.08;;
54899;SDS011;40801;41.924;25.562;2023-02-10T07:32:24;25.27;;;21.50;;
54899;SDS011;40801;41.924;25.562;2023-02-10T07:34:49;23.15;;;19.20;;
54899;SDS011;40801;41.924;25.562;2023-02-10T07:37:14;21.23;;;16.58;;
54899;SDS011;40801;41.924;25.562;2023-02-10T07:39:40;18.50;;;16.15;;
54899;SDS011;40801;41.924;25.562;2023-02-10T07:42:06;21.95;;;18.25;;
54899;SDS011;40801;41.924;25.562;2023-02-10T07:44:31;18.50;;;16.30;;
54899;SDS011;40801;41.924;25.562;2023-02-10T07:46:56;19.10;;;16.92;;
54899;SDS011;40801;41.924;25.562;2023-02-10T07:49:22;20.92;;;16.63;;
54899;SDS011;40801;41.924;25.562;2023-02-10T07:51:47;24.20;;;19.15;;
54899;SDS011;40801;41.924;25.562;2023-02-10T07:54:13;18.77;;;16.55;;
54899;SDS011;40801;41.924;25.562;2023-02-10T07:56:38;21.42;;;17.30;;
54899;SDS011;40801;41.924;25.562;2023-02-10T07:59:03;16.27;;;14.05;;
54899;SDS011;40801;41.924;25.562;2023-02-10T08:01:29;15.05;;;13.35;;
54899;SDS011;40801;41.924;25.562;2023-02-10T08:03:54;22.95;;;15.05;;
54899;SDS011;40801;41.924;25.562;2023-02-10T08:06:22;13.75;;;12.15;;
54899;SDS011;40801;41.924;25.562;2023-02-10T08:08:50;15.95;;;12.45;;
54899;SDS011;40801;41.924;25.562;2023-02-10T08:11:15;14.38;;;12.55;;
54899;SDS011;40801;41.924;25.562;2023-02-10T08:13:42;14.43;;;12.82;;
54899;SDS011;40801;41.924;25.562;2023-02-10T08:16:08;17.23;;;15.45;;
54899;SDS011;40801;41.924;25.562;2023-02-10T08:18:36;18.75;;;14.82;;
54899;SDS011;40801;41.924;25.562;2023-02-10T08:21:02;21.00;;;16.63;;
54899;SDS011;40801;41.924;25.562;2023-02-10T08:23:29;21.13;;;18.92;;
54899;SDS011;40801;41.924;25.562;2023-02-10T08:25:55;26.75;;;23.25;;
54899;SDS011;40801;41.924;25.562;2023-02-10T08:28:20;20.00;;;18.00;;
54899;SDS011;40801;41.924;25.562;2023-02-10T08:30:46;17.95;;;16.02;;
54899;SDS011;40801;41.924;25.562;2023-02-10T08:33:11;16.27;;;14.52;;
54899;SDS011;40801;41.924;25.562;2023-02-10T08:35:37;20.45;;;18.20;;
54899;SDS011;40801;41.924;25.562;2023-02-10T08:38:03;21.85;;;19.40;;
54899;SDS011;40801;41.924;25.562;2023-02-10T08:40:30;26.88;;;22.05;;
54899;SDS011;40801;41.924;25.562;2023-02-10T08:42:56;20.20;;;17.85;;
54899;SDS011;40801;41.924;25.562;2023-02-10T08:45:22;22.65;;;20.25;;
54899;SDS011;40801;41.924;25.562;2023-02-10T08:47:47;31.30;;;27.05;;
54899;SDS011;40801;41.924;25.562;2023-02-10T08:50:13;31.88;;;24.33;;
54899;SDS011;40801;41.924;25.562;2023-02-10T08:52:38;29.92;;;22.23;;
54899;SDS011;40801;41.924;25.562;2023-02-10T08:55:04;19.25;;;17.15;;
54899;SDS011;40801;41.924;25.562;2023-02-10T08:57:31;17.85;;;16.02;;
54899;SDS011;40801;41.924;25.562;2023-02-10T08:59:56;16.85;;;14.80;;
54899;SDS011;40801;41.924;25.562;2023-02-10T09:02:22;30.45;;;25.23;;
54899;SDS011;40801;41.924;25.562;2023-02-10T09:04:47;20.25;;;17.67;;
54899;SDS011;40801;41.924;25.562;2023-02-10T09:07:12;43.08;;;30.45;;
54899;SDS011;40801;41.924;25.562;2023-02-10T09:09:39;22.38;;;18.10;;
54899;SDS011;40801;41.924;25.562;2023-02-10T09:12:06;22.30;;;17.05;;
54899;SDS011;40801;41.924;25.562;2023-02-10T09:14:34;24.20;;;18.98;;
54899;SDS011;40801;41.924;25.562;2023-02-10T09:16:59;18.85;;;14.57;;
54899;SDS011;40801;41.924;25.562;2023-02-10T09:19:25;18.70;;;15.52;;
54899;SDS011;40801;41.924;25.562;2023-02-10T09:21:50;17.25;;;15.13;;
54899;SDS011;40801;41.924;25.562;2023-02-10T09:24:16;14.50;;;13.02;;
54899;SDS011;40801;41.924;25.562;2023-02-10T09:26:41;26.35;;;20.92;;
54899;SDS011;40801;41.924;25.562;2023-02-10T09:29:08;13.23;;;11.80;;
54899;SDS011;40801;41.924;25.562;2023-02-10T09:31:33;15.45;;;13.98;;
54899;SDS011;40801;41.924;25.562;2023-02-10T09:33:59;15.68;;;14.25;;
54899;SDS011;40801;41.924;25.562;2023-02-10T09:36:25;21.60;;;19.25;;
54899;SDS011;40801;41.924;25.562;2023-02-10T09:38:50;13.68;;;12.48;;
54899;SDS011;40801;41.924;25.562;2023-02-10T09:42:01;19.50;;;17.70;;
54899;SDS011;40801;41.924;25.562;2023-02-10T09:52:06;12.20;;;10.02;;
54899;SDS011;40801;41.924;25.562;2023-02-10T09:54:40;12.13;;;10.82;;
54899;SDS011;40801;41.924;25.562;2023-02-10T10:00:34;10.27;;;9.30;;
54899;SDS011;40801;41.924;25.562;2023-02-10T10:03:05;11.77;;;10.48;;
54899;SDS011;40801;41.924;25.562;2023-02-10T10:05:45;10.27;;;9.18;;
54899;SDS011;40801;41.924;25.562;2023-02-10T10:10:51;8.65;;;7.82;;
54899;SDS011;40801;41.924;25.562;2023-02-10T10:13:21;11.50;;;10.30;;
54899;SDS011;40801;41.924;25.562;2023-02-10T10:15:55;9.95;;;7.05;;
54899;SDS011;40801;41.924;25.562;2023-02-10T10:18:25;8.32;;;7.15;;
54899;SDS011;40801;41.924;25.562;2023-02-10T10:21:01;9.32;;;8.52;;
54899;SDS011;40801;41.924;25.562;2023-02-10T10:26:42;8.45;;;7.75;;
54899;SDS011;40801;41.924;25.562;2023-02-10T10:32:14;10.23;;;9.15;;
54899;SDS011;40801;41.924;25.562;2023-02-10T10:34:42;11.35;;;10.25;;
54899;SDS011;40801;41.924;25.562;2023-02-10T10:37:15;12.00;;;10.73;;
54899;SDS011;40801;41.924;25.562;2023-02-10T10:39:50;7.15;;;6.60;;
54899;SDS011;40801;41.924;25.562;2023-02-10T10:42:26;8.35;;;6.93;;
54899;SDS011;40801;41.924;25.562;2023-02-10T10:45:00;8.13;;;7.18;;
54899;SDS011;40801;41.924;25.562;2023-02-10T10:47:36;11.95;;;10.80;;
54899;SDS011;40801;41.924;25.562;2023-02-10T10:50:17;7.15;;;6.53;;
54899;SDS011;40801;41.924;25.562;2023-02-10T10:52:45;9.05;;;8.15;;
54899;SDS011;40801;41.924;25.562;2023-02-10T10:55:21;8.48;;;7.57;;
54899;SDS011;40801;41.924;25.562;2023-02-10T10:57:52;10.75;;;9.75;;
54899;SDS011;40801;41.924;25.562;2023-02-10T11:00:21;7.30;;;6.60;;
54899;SDS011;40801;41.924;25.562;2023-02-10T11:02:52;9.52;;;7.70;;
54899;SDS011;40801;41.924;25.562;2023-02-10T11:05:26;6.57;;;5.70;;
54899;SDS011;40801;41.924;25.562;2023-02-10T11:07:54;12.13;;;11.23;;
54899;SDS011;40801;41.924;25.562;2023-02-10T11:10:33;9.27;;;8.40;;
54899;SDS011;40801;41.924;25.562;2023-02-10T11:13:01;16.45;;;15.10;;
54899;SDS011;40801;41.924;25.562;2023-02-10T11:17:58;7.97;;;7.18;;
54899;SDS011;40801;41.924;25.562;2023-02-10T11:22:57;11.50;;;8.20;;
54899;SDS011;40801;41.924;25.562;2023-02-10T11:28:00;7.55;;;6.88;;
54899;SDS011;40801;41.924;25.562;2023-02-10T11:32:58;8.40;;;7.60;;
54899;SDS011;40801;41.924;25.562;2023-02-10T11:35:26;8.20;;;7.50;;
54899;SDS011;40801;41.924;25.562;2023-02-10T11:37:57;10.60;;;7.93;;
54899;SDS011;40801;41.924;25.562;2023-02-10T11:40:45;8.73;;;7.72;;
54899;SDS011;40801;41.924;25.562;2023-02-10T11:43:14;9.43;;;8.43;;
54899;SDS011;40801;41.924;25.562;2023-02-10T11:45:50;9.68;;;8.75;;
54899;SDS011;40801;41.924;25.562;2023-02-10T11:48:19;9.57;;;8.77;;
54899;SDS011;40801;41.924;25.562;2023-02-10T11:50:47;14.27;;;10.07;;
54899;SDS011;40801;41.924;25.562;2023-02-10T11:53:25;7.13;;;6.50;;
54899;SDS011;40801;41.924;25.562;2023-02-10T11:55:58;7.97;;;6.28;;
54899;SDS011;40801;41.924;25.562;2023-02-10T11:58:59;8.80;;;6.97;;
54899;SDS011;40801;41.924;25.562;2023-02-10T12:01:48;13.23;;;9.37;;
54899;SDS011;40801;41.924;25.562;2023-02-10T12:04:21;9.88;;;8.55;;
54899;SDS011;40801;41.924;25.562;2023-02-10T12:10:02;8.90;;;8.05;;
54899;SDS011;40801;41.924;25.562;2023-02-10T12:23:37;8.15;;;7.35;;
54899;SDS011;40801;41.924;25.562;2023-02-10T12:28:56;8.80;;;6.63;;
54899;SDS011;40801;41.924;25.562;2023-02-10T12:31:47;7.25;;;6.55;;
54899;SDS011;40801;41.924;25.562;2023-02-10T12:40:36;8.85;;;7.60;;
54899;SDS011;40801;41.924;25.562;2023-02-10T12:54:23;6.85;;;6.10;;
54899;SDS011;40801;41.924;25.562;2023-02-10T12:56:51;10.38;;;9.38;;
54899;SDS011;40801;41.924;25.562;2023-02-10T13:01:54;11.05;;;9.95;;
54899;SDS011;40801;41.924;25.562;2023-02-10T13:04:36;22.58;;;19.98;;
54899;SDS011;40801;41.924;25.562;2023-02-10T13:09:59;23.98;;;20.50;;
54899;SDS011;40801;41.924;25.562;2023-02-10T13:12:48;12.68;;;11.43;;
54899;SDS011;40801;41.924;25.562;2023-02-10T13:17:51;11.90;;;10.77;;
54899;SDS011;40801;41.924;25.562;2023-02-10T13:34:17;6.75;;;6.03;;
54899;SDS011;40801;41.924;25.562;2023-02-10T13:37:06;9.95;;;8.88;;
54899;SDS011;40801;41.924;25.562;2023-02-10T13:40:32;9.25;;;8.35;;
54899;SDS011;40801;41.924;25.562;2023-02-10T13:45:22;13.43;;;10.52;;
54899;SDS011;40801;41.924;25.562;2023-02-10T13:47:51;11.00;;;9.90;;
54899;SDS011;40801;41.924;25.562;2023-02-10T13:50:24;8.38;;;7.57;;
54899;SDS011;40801;41.924;25.562;2023-02-10T13:52:52;10.98;;;9.15;;
54899;SDS011;40801;41.924;25.562;2023-02-10T13:57:58;8.73;;;7.78;;
54899;SDS011;40801;41.924;25.562;2023-02-10T14:00:43;13.68;;;11.98;;
54899;SDS011;40801;41.924;25.562;2023-02-10T14:05:38;8.98;;;8.10;;
54899;SDS011;40801;41.924;25.562;2023-02-10T14:08:29;10.48;;;7.75;;
54899;SDS011;40801;41.924;25.562;2023-02-10T14:13:35;9.60;;;8.57;;
54899;SDS011;40801;41.924;25.562;2023-02-10T14:18:30;8.25;;;6.68;;
54899;SDS011;40801;41.924;25.562;2023-02-10T14:21:10;11.20;;;7.57;;
54899;SDS011;40801;41.924;25.562;2023-02-10T14:23:41;15.32;;;9.30;;
54899;SDS011;40801;41.924;25.562;2023-02-10T14:26:23;13.98;;;12.10;;
54899;SDS011;40801;41.924;25.562;2023-02-10T14:31:26;12.43;;;10.80;;
54899;SDS011;40801;41.924;25.562;2023-02-10T14:33:55;10.15;;;8.50;;
54899;SDS011;40801;41.924;25.562;2023-02-10T14:36:23;22.95;;;19.02;;
54899;SDS011;40801;41.924;25.562;2023-02-10T14:38:54;14.10;;;12.70;;
54899;SDS011;40801;41.924;25.562;2023-02-10T14:41:22;20.50;;;18.40;;
54899;SDS011;40801;41.924;25.562;2023-02-10T14:43:49;10.68;;;9.52;;
54899;SDS011;40801;41.924;25.562;2023-02-10T14:46:20;11.10;;;8.55;;
54899;SDS011;40801;41.924;25.562;2023-02-10T14:49:07;10.32;;;8.40;;
54899;SDS011;40801;41.924;25.562;2023-02-10T14:51:38;11.27;;;9.10;;
54899;SDS011;40801;41.924;25.562;2023-02-10T14:54:09;9.65;;;8.65;;
54899;SDS011;40801;41.924;25.562;2023-02-10T14:56:50;10.68;;;9.18;;
54899;SDS011;40801;41.924;25.562;2023-02-10T14:59:21;17.92;;;16.13;;
54899;SDS011;40801;41.924;25.562;2023-02-10T15:01:53;11.15;;;8.88;;
54899;SDS011;40801;41.924;25.562;2023-02-10T15:04:19;11.18;;;10.05;;
54899;SDS011;40801;41.924;25.562;2023-02-10T15:06:52;16.95;;;13.57;;
54899;SDS011;40801;41.924;25.562;2023-02-10T15:09:35;11.07;;;9.57;;
54899;SDS011;40801;41.924;25.562;2023-02-10T15:12:05;19.50;;;15.07;;
54899;SDS011;40801;41.924;25.562;2023-02-10T15:17:35;20.13;;;17.67;;
54899;SDS011;40801;41.924;25.562;2023-02-10T15:22:44;22.05;;;17.23;;
54899;SDS011;40801;41.924;25.562;2023-02-10T15:25:27;22.05;;;16.63;;
54899;SDS011;40801;41.924;25.562;2023-02-10T15:30:40;33.22;;;24.48;;
54899;SDS011;40801;41.924;25.562;2023-02-10T15:33:10;35.13;;;25.83;;
54899;SDS011;40801;41.924;25.562;2023-02-10T15:35:50;32.15;;;25.65;;
54899;SDS011;40801;41.924;25.562;2023-02-10T15:38:20;32.60;;;26.60;;
54899;SDS011;40801;41.924;25.562;2023-02-10T15:40:56;29.35;;;26.25;;
54899;SDS011;40801;41.924;25.562;2023-02-10T15:43:29;32.53;;;27.75;;
54899;SDS011;40801;41.924;25.562;2023-02-10T15:46:15;33.63;;;27.67;;
54899;SDS011;40801;41.924;25.562;2023-02-10T15:48:42;43.33;;;35.88;;
54899;SDS011;40801;41.924;25.562;2023-02-10T15:51:16;41.60;;;35.90;;
54899;SDS011;40801;41.924;25.562;2023-02-10T15:53:47;49.53;;;37.40;;
54899;SDS011;40801;41.924;25.562;2023-02-10T15:56:12;43.90;;;36.63;;
54899;SDS011;40801;41.924;25.562;2023-02-10T15:58:38;44.50;;;34.85;;
54899;SDS011;40801;41.924;25.562;2023-02-10T16:01:03;55.22;;;39.53;;
54899;SDS011;40801;41.924;25.562;2023-02-10T16:03:29;51.80;;;43.38;;
54899;SDS011;40801;41.924;25.562;2023-02-10T16:05:54;64.80;;;47.42;;
54899;SDS011;40801;41.924;25.562;2023-02-10T16:08:26;74.25;;;52.83;;
54899;SDS011;40801;41.924;25.562;2023-02-10T16:10:52;78.65;;;58.97;;
54899;SDS011;40801;41.924;25.562;2023-02-10T16:13:18;119.90;;;87.80;;
54899;SDS011;40801;41.924;25.562;2023-02-10T16:15:44;109.72;;;78.72;;
54899;SDS011;40801;41.924;25.562;2023-02-10T16:18:12;101.65;;;73.63;;
54899;SDS011;40801;41.924;25.562;2023-02-10T16:20:39;96.53;;;70.65;;
54899;SDS011;40801;41.924;25.562;2023-02-10T16:23:15;96.75;;;70.65;;
54899;SDS011;40801;41.924;25.562;2023-02-10T16:25:44;97.32;;;69.63;;
54899;SDS011;40801;41.924;25.562;2023-02-10T16:28:12;94.50;;;69.78;;
54899;SDS011;40801;41.924;25.562;2023-02-10T16:30:40;94.20;;;69.22;;
54899;SDS011;40801;41.924;25.562;2023-02-10T16:33:06;96.03;;;67.47;;
54899;SDS011;40801;41.924;25.562;2023-02-10T16:35:32;200.32;;;132.32;;
54899;SDS011;40801;41.924;25.562;2023-02-10T16:37:57;142.82;;;97.72;;
54899;SDS011;40801;41.924;25.562;2023-02-10T16:42:56;91.53;;;65.63;;
54899;SDS011;40801;41.924;25.562;2023-02-10T16:45:23;89.68;;;61.42;;